Time;durP1;ratioP1;P1;durP2;ratioP2;P2;SDS_P1;SDS_P2;PMS_P1;PMS_P2;Temp;Humidity;BMP_temperature;BMP_pressure;BME280_temperature;BME280_humidity;BME280_pressure;Samples;Min_cycle;Max_cycle;Signal;HPM_P1;HPM_P2
2021/01/08 00:01:45;;;;;;;51.75;21.10;;;;;;;-0.92;90.76;96437.97;5039138;28;20684;-62
2021/01/08 00:04:11;;;;;;;38.97;17.80;;;;;;;-0.85;91.03;96441.03;5034171;28;20036;-61
2021/01/08 00:06:36;;;;;;;38.35;18.92;;;;;;;-0.85;91.01;96435.66;5037543;28;20079;-63
2021/01/08 00:09:02;;;;;;;41.45;17.75;;;;;;;-0.80;91.00;96432.09;5026860;28;20056;-62
2021/01/08 00:11:28;;;;;;;41.58;17.95;;;;;;;-0.74;90.44;96436.25;5015716;28;20049;-61
2021/01/08 00:13:54;;;;;;;38.97;18.30;;;;;;;-0.78;90.70;96427.22;5022358;28;20533;-63
2021/01/08 00:16:19;;;;;;;39.95;17.88;;;;;;;-0.72;90.18;96430.59;5023532;28;20053;-62
2021/01/08 00:18:46;;;;;;;38.72;17.67;;;;;;;-0.74;90.51;96430.09;5031854;28;20079;-62
2021/01/08 00:21:12;;;;;;;34.05;16.95;;;;;;;-0.77;90.74;96426.91;5024594;28;20075;-60
2021/01/08 00:23:37;;;;;;;41.42;17.42;;;;;;;-0.73;90.57;96421.72;5018146;28;20049;-60
2021/01/08 00:26:03;;;;;;;37.00;18.00;;;;;;;-0.81;90.21;96423.25;5014971;28;20076;-63
2021/01/08 00:28:29;;;;;;;40.10;18.17;;;;;;;-0.97;90.78;96425.44;5016391;28;20482;-62
2021/01/08 00:30:54;;;;;;;35.55;17.73;;;;;;;-0.99;91.36;96416.06;5018575;28;20072;-63
2021/01/08 00:33:20;;;;;;;43.38;18.88;;;;;;;-1.01;91.50;96416.38;5013050;28;20548;-62
2021/01/08 00:35:45;;;;;;;40.92;18.58;;;;;;;-1.01;91.40;96418.25;5033839;28;20532;-62
2021/01/08 00:38:11;;;;;;;35.42;17.77;;;;;;;-0.94;90.99;96415.94;5020953;28;20433;-62
2021/01/08 00:40:37;;;;;;;49.10;19.08;;;;;;;-0.84;91.34;96415.75;5018260;28;20041;-62
2021/01/08 00:43:05;;;;;;;48.33;19.00;;;;;;;-0.70;90.99;96420.31;5014429;28;20053;-62
2021/01/08 00:45:32;;;;;;;42.90;18.33;;;;;;;-0.67;91.03;96423.22;5012568;28;20041;-65
2021/01/08 00:47:57;;;;;;;43.17;17.88;;;;;;;-0.67;90.74;96425.09;5029634;28;20049;-62
2021/01/08 00:50:23;;;;;;;38.53;17.40;;;;;;;-0.64;90.58;96421.81;5025392;28;20263;-62
2021/01/08 00:52:48;;;;;;;39.75;18.45;;;;;;;-0.71;90.48;96429.50;5034823;28;20102;-63
2021/01/08 00:55:13;;;;;;;40.83;18.15;;;;;;;-0.71;90.41;96424.91;5036795;28;20091;-64
2021/01/08 00:57:39;;;;;;;40.45;18.13;;;;;;;-0.66;90.33;96430.19;5040797;28;20035;-64
2021/01/08 01:00:07;;;;;;;41.92;18.02;;;;;;;-0.60;90.44;96415.53;5033460;28;20079;-63
2021/01/08 01:02:33;;;;;;;48.28;19.30;;;;;;;-0.45;89.85;96424.38;5054948;28;20045;-63
2021/01/08 01:04:59;;;;;;;37.95;17.13;;;;;;;-0.35;89.46;96429.53;5035800;28;20504;-63
2021/01/08 01:07:25;;;;;;;47.65;20.13;;;;;;;-0.38;89.61;96427.44;5028186;28;20041;-62
2021/01/08 01:09:50;;;;;;;47.40;18.88;;;;;;;-0.40;89.32;96432.34;5039906;28;20037;-62
2021/01/08 01:12:16;;;;;;;38.72;17.65;;;;;;;-0.41;89.47;96428.84;5034472;28;20044;-63
2021/01/08 01:14:42;;;;;;;38.38;16.90;;;;;;;-0.37;88.80;96431.75;5041515;28;20129;-63
2021/01/08 01:17:08;;;;;;;37.10;15.90;;;;;;;-0.32;89.00;96433.53;5034583;28;20041;-62
2021/01/08 01:19:33;;;;;;;36.88;16.63;;;;;;;-0.31;88.77;96432.41;5039040;28;20052;-64
2021/01/08 01:21:59;;;;;;;36.33;16.25;;;;;;;-0.40;88.25;96433.16;5032661;28;20044;-62
2021/01/08 01:24:24;;;;;;;35.95;16.27;;;;;;;-0.29;88.12;96433.72;5029946;28;766592;-64
2021/01/08 01:26:53;;;;;;;35.10;15.88;;;;;;;-0.32;87.63;96442.41;5051879;28;20045;-64
2021/01/08 01:29:19;;;;;;;33.30;14.57;;;;;;;-0.27;87.51;96441.47;5035855;28;20036;-63
2021/01/08 01:31:45;;;;;;;35.47;15.50;;;;;;;-0.33;87.40;96437.31;5023765;28;20041;-63
2021/01/08 01:34:11;;;;;;;31.40;14.80;;;;;;;-0.26;87.47;96443.88;5043414;28;20119;-62
2021/01/08 01:37:29;;;;;;;34.85;16.67;;;;;;;-0.36;87.70;96452.19;5060745;28;20592;-63
2021/01/08 01:39:54;;;;;;;30.52;15.07;;;;;;;-0.41;88.53;96447.69;5049336;28;20104;-61
2021/01/08 01:45:42;;;;;;;32.60;14.30;;;;;;;-0.18;87.11;96460.41;5062788;28;20097;-62
2021/01/08 01:48:09;;;;;;;35.00;14.73;;;;;;;-0.14;87.01;96450.66;5072074;28;20044;-62
2021/01/08 01:50:34;;;;;;;32.92;15.05;;;;;;;-0.11;86.78;96447.31;5063228;28;20044;-64
2021/01/08 01:53:00;;;;;;;32.28;14.38;;;;;;;-0.04;86.70;96456.59;5042111;28;20039;-63
2021/01/08 01:55:26;;;;;;;33.53;15.23;;;;;;;-0.02;86.27;96457.09;5041784;28;20040;-63
2021/01/08 01:57:52;;;;;;;33.17;14.98;;;;;;;-0.07;86.09;96459.09;5063787;28;20044;-63
2021/01/08 02:00:18;;;;;;;36.17;15.15;;;;;;;-0.14;86.39;96459.50;5064744;28;20036;-64
2021/01/08 02:02:53;;;;;;;39.10;15.35;;;;;;;-0.14;86.52;96456.03;5058457;28;20071;-63
2021/01/08 02:05:21;;;;;;;30.77;14.02;;;;;;;-0.16;86.80;96459.03;5059339;28;20121;-63
2021/01/08 02:07:57;;;;;;;33.78;15.18;;;;;;;-0.24;86.76;96459.72;5063673;28;20047;-63
2021/01/08 02:10:25;;;;;;;30.10;13.88;;;;;;;-0.30;87.32;96455.56;5052790;28;20299;-63
2021/01/08 02:12:52;;;;;;;31.65;14.75;;;;;;;-0.24;87.22;96457.03;5060643;28;20052;-62
2021/01/08 02:15:19;;;;;;;31.73;14.15;;;;;;;-0.17;86.65;96462.78;5038189;28;20079;-63
2021/01/08 02:17:47;;;;;;;33.90;15.60;;;;;;;-0.26;86.42;96454.63;5057814;28;20489;-62
2021/01/08 02:20:14;;;;;;;32.58;14.93;;;;;;;-0.32;87.81;96455.06;5052437;28;20052;-62
2021/01/08 02:22:50;;;;;;;32.17;14.90;;;;;;;-0.30;87.36;96463.63;5035202;28;20048;-63
2021/01/08 02:25:25;;;;;;;33.17;15.80;;;;;;;-0.29;87.32;96457.13;5054973;28;20079;-63
2021/01/08 02:28:06;;;;;;;31.02;14.40;;;;;;;-0.39;87.92;96461.63;5060990;28;20036;-62
2021/01/08 02:30:33;;;;;;;31.20;15.30;;;;;;;-0.34;89.10;96468.81;5057822;28;20059;-63
2021/01/08 02:33:00;;;;;;;34.00;14.93;;;;;;;-0.25;88.60;96466.22;5059368;28;20048;-64
2021/01/08 02:35:27;;;;;;;31.70;13.70;;;;;;;-0.18;87.60;96460.41;5055535;28;20130;-64
2021/01/08 02:37:55;;;;;;;33.08;14.70;;;;;;;-0.10;87.54;96468.56;5036690;28;20132;-63
2021/01/08 02:40:20;;;;;;;34.85;15.48;;;;;;;-0.03;87.34;96462.78;5051622;28;20036;-63
2021/01/08 02:42:48;;;;;;;29.02;14.70;;;;;;;0.02;87.47;96472.63;5057446;28;20444;-60
2021/01/08 02:45:14;;;;;;;33.60;15.48;;;;;;;0.02;87.49;96465.34;5038356;28;20148;-63
2021/01/08 02:47:41;;;;;;;33.60;15.18;;;;;;;0.02;87.86;96457.28;5061768;28;20090;-60
2021/01/08 02:50:07;;;;;;;31.73;14.05;;;;;;;0.01;88.23;96462.97;5058716;28;20033;-61
2021/01/08 02:52:35;;;;;;;35.90;14.77;;;;;;;0.02;87.70;96465.34;5059961;28;20044;-64
2021/01/08 02:55:04;;;;;;;31.70;14.32;;;;;;;0.02;87.56;96461.84;5048864;28;20056;-61
2021/01/08 02:57:31;;;;;;;36.87;16.00;;;;;;;-0.19;88.77;96462.31;5061277;28;20060;-63
2021/01/08 02:59:58;;;;;;;33.67;15.52;;;;;;;-0.36;88.83;96473.72;5060497;28;20481;-62
2021/01/08 03:02:24;;;;;;;35.70;16.17;;;;;;;-0.30;89.06;96464.41;5052987;28;20065;-61
2021/01/08 03:04:50;;;;;;;34.05;15.13;;;;;;;-0.44;89.21;96469.03;5052579;28;20127;-62
2021/01/08 03:07:24;;;;;;;36.05;15.05;;;;;;;-0.57;89.40;96467.94;5055895;28;20450;-61
2021/01/08 03:09:51;;;;;;;35.35;14.93;;;;;;;-0.54;89.68;96458.47;5041983;28;20090;-63
2021/01/08 03:12:17;;;;;;;38.75;15.30;;;;;;;-0.69;90.00;96460.38;5036140;28;20044;-63
2021/01/08 03:14:47;;;;;;;39.55;16.85;;;;;;;-0.66;90.24;96459.78;5052803;28;20051;-64
2021/01/08 03:17:13;;;;;;;;;;;;;;;-0.70;90.59;96458.78;5059833;28;20063;-62
2021/01/08 03:19:38;;;;;;;38.60;16.05;;;;;;;-0.70;90.85;96456.09;5046976;28;19936;-60
2021/01/08 03:22:04;;;;;;;41.40;16.23;;;;;;;-0.70;90.64;96453.41;5055581;28;20516;-64
2021/01/08 03:24:30;;;;;;;40.83;16.83;;;;;;;-0.77;90.94;96463.78;5059960;28;20413;-62
2021/01/08 03:26:56;;;;;;;42.25;17.20;;;;;;;-0.80;90.87;96456.28;5062637;28;20565;-62
2021/01/08 03:29:21;;;;;;;40.65;18.08;;;;;;;-0.82;91.18;96459.28;5059903;28;20044;-63
2021/01/08 03:31:49;;;;;;;37.95;17.08;;;;;;;-0.82;91.04;96453.13;5066880;28;20044;-63
2021/01/08 03:34:17;;;;;;;39.38;16.83;;;;;;;-0.82;91.21;96461.97;5057801;28;20099;-63
2021/01/08 03:36:42;;;;;;;39.47;18.08;;;;;;;-0.86;91.22;96458.28;5039889;28;20052;-62
2021/01/08 03:39:08;;;;;;;38.63;16.58;;;;;;;-0.82;91.27;96456.59;5037588;28;20029;-63
2021/01/08 03:41:33;;;;;;;38.50;17.35;;;;;;;-0.80;91.13;96458.97;5042481;28;20047;-62
2021/01/08 03:43:59;;;;;;;39.53;17.73;;;;;;;-0.82;90.68;96453.91;5043723;28;20047;-64
2021/01/08 03:46:24;;;;;;;37.65;16.45;;;;;;;-0.78;91.01;96459.47;5047400;28;20047;-64
2021/01/08 03:48:50;;;;;;;38.65;15.60;;;;;;;-0.78;90.95;96460.25;5051193;28;20053;-63
2021/01/08 03:51:16;;;;;;;37.90;15.18;;;;;;;-0.78;90.58;96459.47;5045787;28;20044;-64
2021/01/08 03:53:42;;;;;;;35.33;15.45;;;;;;;-0.69;90.18;96462.28;5072999;28;20059;-63
2021/01/08 03:56:07;;;;;;;36.75;15.77;;;;;;;-0.72;90.01;96460.16;5060531;28;20040;-65
2021/01/08 03:58:33;;;;;;;35.28;15.48;;;;;;;-0.70;90.08;96461.47;5093836;22;21420;-63
2021/01/08 04:00:58;;;;;;;35.50;15.55;;;;;;;-0.79;89.30;96453.31;5046727;28;20119;-62
2021/01/08 04:03:24;;;;;;;35.33;15.23;;;;;;;-0.79;89.32;96457.91;5065226;28;20044;-62
2021/01/08 04:05:49;;;;;;;32.95;14.95;;;;;;;-0.79;88.85;96457.91;5075280;28;20051;-62
2021/01/08 04:08:15;;;;;;;30.15;14.15;;;;;;;-0.73;89.05;96451.31;5053998;28;20127;-62
2021/01/08 04:10:41;;;;;;;31.52;13.85;;;;;;;-0.71;88.82;96453.72;5067986;28;20041;-63
2021/01/08 04:13:06;;;;;;;35.35;15.85;;;;;;;-0.73;88.14;96455.91;5068407;28;20067;-62
2021/01/08 04:15:32;;;;;;;36.88;16.55;;;;;;;-0.81;88.25;96457.38;5057266;28;20182;-62
2021/01/08 04:17:57;;;;;;;34.65;16.17;;;;;;;-0.77;88.02;96458.41;5027490;28;20045;-61
2021/01/08 04:20:23;;;;;;;31.88;14.15;;;;;;;-0.78;88.44;96459.47;5036654;28;20289;-62
2021/01/08 04:22:49;;;;;;;28.83;13.80;;;;;;;-0.81;88.05;96455.50;5040287;28;20040;-60
2021/01/08 04:25:14;;;;;;;37.80;15.00;;;;;;;-0.81;88.11;96455.50;5054338;28;20054;-62
2021/01/08 04:27:40;;;;;;;30.92;14.32;;;;;;;-0.86;88.11;96460.19;5059129;28;20086;-62
2021/01/08 04:30:06;;;;;;;30.77;14.65;;;;;;;-0.84;87.73;96449.94;5055151;28;20064;-62
2021/01/08 04:32:31;;;;;;;31.33;13.93;;;;;;;-0.88;87.71;96448.91;5042354;28;20136;-61
2021/01/08 04:34:57;;;;;;;30.73;14.05;;;;;;;-0.82;87.95;96455.81;5039164;28;20723;-60
2021/01/08 04:37:23;;;;;;;34.28;14.65;;;;;;;-0.75;87.26;96450.03;5036187;28;20056;-60
2021/01/08 04:39:48;;;;;;;32.25;15.00;;;;;;;-0.84;87.57;96455.31;5056552;28;20044;-61
2021/01/08 04:42:17;;;;;;;33.60;15.05;;;;;;;-0.86;87.96;96449.44;5051369;28;20036;-61
2021/01/08 04:44:43;;;;;;;32.07;15.90;;;;;;;-0.90;88.28;96449.22;5050397;28;20094;-62
2021/01/08 04:47:13;;;;;;;35.65;16.42;;;;;;;-0.86;87.54;96444.84;5054066;28;20295;-62
2021/01/08 04:49:41;;;;;;;33.60;14.80;;;;;;;-0.81;87.87;96452.00;5049744;28;20132;-62
2021/01/08 04:52:08;;;;;;;29.90;14.60;;;;;;;-0.93;88.02;96444.44;5062245;28;20067;-61
2021/01/08 04:54:34;;;;;;;32.65;15.20;;;;;;;-0.96;87.97;96451.19;5035710;28;20102;-61
2021/01/08 04:57:03;;;;;;;34.47;15.13;;;;;;;-0.93;88.03;96446.34;5060534;28;20033;-63
2021/01/08 04:59:29;;;;;;;30.75;14.73;;;;;;;-0.98;87.80;96450.72;5068148;28;20051;-60
2021/01/08 05:01:55;;;;;;;29.08;13.98;;;;;;;-0.98;87.42;96447.22;5059532;28;20041;-61
2021/01/08 05:04:21;;;;;;;28.35;13.23;;;;;;;-1.01;87.70;96454.00;5053328;28;20033;-62
2021/01/08 05:06:46;;;;;;;31.13;13.90;;;;;;;-0.90;87.46;96453.78;5051698;28;20401;-62
2021/01/08 05:09:12;;;;;;;32.88;14.77;;;;;;;-0.83;86.50;96456.88;5034365;28;20037;-59
2021/01/08 05:11:37;;;;;;;29.58;14.73;;;;;;;-0.78;86.75;96448.72;5057189;28;20044;-62
2021/01/08 05:14:07;;;;;;;28.77;13.75;;;;;;;-0.84;86.38;96452.63;5054223;28;20037;-62
2021/01/08 05:16:33;;;;;;;27.55;12.98;;;;;;;-0.77;86.79;96456.50;5066061;28;20048;-61
2021/01/08 05:19:01;;;;;;;27.75;12.38;;;;;;;-0.84;86.12;96450.72;5060713;28;20036;-58
2021/01/08 05:21:28;;;;;;;28.30;13.68;;;;;;;-0.83;86.12;96452.31;5054989;28;20510;-60
2021/01/08 05:23:55;;;;;;;25.92;14.43;;;;;;;-0.80;85.90;96458.97;5057920;28;20514;-61
2021/01/08 05:26:22;;;;;;;28.20;12.48;;;;;;;-0.85;86.48;96449.09;5057960;28;20041;-62
2021/01/08 05:28:49;;;;;;;26.58;13.73;;;;;;;-0.89;86.15;96460.78;5047167;28;20118;-61
2021/01/08 05:31:17;;;;;;;28.70;12.73;;;;;;;-0.85;86.47;96459.09;5038114;28;20044;-60
2021/01/08 05:33:48;;;;;;;28.42;13.60;;;;;;;-0.79;86.58;96463.28;5054240;28;20036;-62
2021/01/08 05:36:19;;;;;;;30.73;12.07;;;;;;;-0.78;86.80;96471.03;5055558;28;20041;-64
2021/01/08 05:38:47;;;;;;;29.13;12.25;;;;;;;-0.77;85.84;96461.88;5057932;28;20045;-62
2021/01/08 05:41:13;;;;;;;26.95;13.50;;;;;;;-0.66;85.92;96465.16;5039366;28;20080;-61
2021/01/08 05:43:40;;;;;;;26.85;12.07;;;;;;;-0.61;85.48;96472.34;5043333;28;20431;-62
2021/01/08 05:46:10;;;;;;;27.13;13.45;;;;;;;-0.72;85.48;96469.06;5038660;28;20101;-62
2021/01/08 05:48:39;;;;;;;28.67;13.30;;;;;;;-0.77;85.83;96469.16;5052855;28;20040;-62
2021/01/08 05:51:05;;;;;;;27.88;14.15;;;;;;;-0.79;86.17;96472.13;5056586;28;20129;-62
2021/01/08 05:53:32;;;;;;;28.02;13.13;;;;;;;-0.84;85.79;96469.53;5063151;28;20094;-61
2021/01/08 05:55:58;;;;;;;25.05;11.68;;;;;;;-0.81;86.53;96471.66;5045732;28;20045;-61
2021/01/08 05:58:25;;;;;;;30.35;12.57;;;;;;;-0.87;85.99;96472.81;5059591;28;20127;-62
2021/01/08 06:00:57;;;;;;;27.88;12.48;;;;;;;-0.97;86.68;96465.75;5064695;28;20032;-63
2021/01/08 06:03:24;;;;;;;26.55;12.32;;;;;;;-0.92;87.29;96466.75;5057566;28;20654;-61
2021/01/08 06:05:53;;;;;;;27.80;14.10;;;;;;;-0.89;86.25;96466.94;5045484;28;20127;-60
2021/01/08 06:08:28;;;;;;;27.05;12.95;;;;;;;-0.97;86.09;96460.38;5058471;28;20032;-61
2021/01/08 06:10:56;;;;;;;27.00;13.38;;;;;;;-0.96;86.75;96466.53;5045805;28;20045;-62
2021/01/08 06:13:26;;;;;;;32.00;14.55;;;;;;;-0.85;86.60;96467.16;5054767;28;20052;-62
2021/01/08 06:15:54;;;;;;;31.00;13.77;;;;;;;-0.84;86.67;96468.75;5075400;28;20381;-62
2021/01/08 06:18:21;;;;;;;31.50;12.50;;;;;;;-0.84;87.14;96466.06;5039557;28;20036;-61
2021/01/08 06:20:49;;;;;;;29.70;13.43;;;;;;;-0.80;85.99;96467.84;5089058;28;20094;-63
2021/01/08 06:23:42;;;;;;;28.50;13.43;;;;;;;-0.79;86.69;96469.44;5061176;28;20052;-63
2021/01/08 06:26:13;;;;;;;28.08;12.73;;;;;;;-0.77;86.38;96464.56;5064076;28;20076;-60
2021/01/08 06:28:41;;;;;;;29.23;12.50;;;;;;;-0.86;86.36;96458.28;5060583;28;20056;-61
2021/01/08 06:31:28;;;;;;;26.52;13.10;;;;;;;-0.81;85.84;96466.25;5055277;28;20036;-61
2021/01/08 06:33:55;;;;;;;30.45;13.20;;;;;;;-0.95;86.64;96470.84;5017112;28;20040;-61
2021/01/08 06:36:26;;;;;;;26.17;13.13;;;;;;;-0.96;86.60;96472.72;5059379;28;20175;-62
2021/01/08 06:38:54;;;;;;;29.30;13.52;;;;;;;-0.96;86.62;96470.03;5068562;28;20051;-61
2021/01/08 06:41:20;;;;;;;26.02;12.27;;;;;;;-0.91;86.48;96473.72;5052826;28;20140;-61
2021/01/08 06:43:51;;;;;;;31.25;13.68;;;;;;;-0.90;86.54;96478.00;5062425;28;20126;-61
2021/01/08 06:46:40;;;;;;;30.98;14.55;;;;;;;-0.95;86.65;96481.59;5055432;28;20044;-61
2021/01/08 06:49:12;;;;;;;29.75;13.65;;;;;;;-0.93;86.60;96476.72;5056204;28;20040;-62
2021/01/08 06:51:43;;;;;;;28.17;14.00;;;;;;;-0.92;86.85;96480.97;5049779;28;20052;-62
2021/01/08 06:54:10;;;;;;;30.08;13.80;;;;;;;-0.96;86.25;96479.97;5059665;28;20044;-62
2021/01/08 06:56:59;;;;;;;29.80;13.90;;;;;;;-0.94;86.91;96477.78;5061527;28;20047;-64
2021/01/08 06:59:33;;;;;;;31.87;14.77;;;;;;;-0.86;87.04;96482.50;5068329;28;20044;-63
2021/01/08 07:02:15;;;;;;;29.42;13.93;;;;;;;-0.78;87.12;96486.38;5067478;28;20044;-61
2021/01/08 07:04:41;;;;;;;30.48;14.02;;;;;;;-0.56;84.74;96484.88;5062536;28;20135;-61
2021/01/08 07:07:28;;;;;;;29.63;14.48;;;;;;;-0.48;85.02;96489.56;5055951;28;20041;-62
2021/01/08 07:09:54;;;;;;;32.78;14.02;;;;;;;-0.60;84.71;96490.06;5044475;28;20047;-62
2021/01/08 07:12:25;;;;;;;32.90;13.43;;;;;;;-0.69;86.25;96492.66;5042437;28;20125;-62
2021/01/08 07:14:53;;;;;;;30.77;14.48;;;;;;;-0.71;85.91;96500.22;5061774;28;20505;-62
2021/01/08 07:17:31;;;;;;;35.20;15.43;;;;;;;-0.83;86.11;96502.59;5056297;28;20398;-62
2021/01/08 07:19:59;;;;;;;30.70;14.98;;;;;;;-0.88;85.97;96505.38;5062226;28;20044;-62
2021/01/08 07:22:31;;;;;;;32.67;14.05;;;;;;;-0.91;86.29;96496.03;5054928;28;20048;-61
2021/01/08 07:24:58;;;;;;;29.98;13.30;;;;;;;-0.91;86.58;96504.09;5058762;28;20040;-62
2021/01/08 07:27:25;;;;;;;32.28;14.20;;;;;;;-0.78;86.02;96524.03;5054766;28;20489;-63
2021/01/08 07:29:53;;;;;;;30.48;14.40;;;;;;;-0.72;85.83;96513.97;5059566;28;20041;-62
2021/01/08 07:32:48;;;;;;;28.40;12.88;;;;;;;-0.83;85.28;96524.94;5055581;28;20060;-60
2021/01/08 07:35:24;;;;;;;28.52;12.70;;;;;;;-0.77;85.26;96526.41;5044555;28;20039;-61
2021/01/08 07:38:03;;;;;;;29.33;12.73;;;;;;;-0.89;85.21;96522.63;5061506;28;20102;-61
2021/01/08 07:40:31;;;;;;;24.73;12.82;;;;;;;-0.82;85.47;96531.09;5059110;28;20127;-62
2021/01/08 07:43:00;;;;;;;26.50;12.68;;;;;;;-0.78;85.96;96524.81;5067399;28;20098;-61
2021/01/08 07:45:45;;;;;;;29.58;12.75;;;;;;;-0.83;85.55;96534.88;5060827;28;20048;-63
2021/01/08 07:48:19;;;;;;;28.60;13.75;;;;;;;-0.88;85.44;96535.78;5055966;28;20044;-62
2021/01/08 07:50:57;;;;;;;30.95;13.27;;;;;;;-0.88;86.03;96537.63;5082958;28;20043;-62
2021/01/08 07:53:41;;;;;;;29.02;13.70;;;;;;;-0.78;85.49;96540.16;5064982;28;20550;-61
2021/01/08 07:56:08;;;;;;;26.48;11.77;;;;;;;-0.58;84.46;96547.03;5065364;28;20124;-61
2021/01/08 07:58:35;;;;;;;29.00;12.68;;;;;;;-0.55;83.88;96548.34;5068151;28;20047;-61
2021/01/08 08:01:05;;;;;;;26.77;12.55;;;;;;;-0.66;83.56;96547.75;5078480;28;20047;-61
2021/01/08 08:03:31;;;;;;;26.05;12.68;;;;;;;-0.70;84.45;96552.94;5080144;28;20063;-61
2021/01/08 08:05:59;;;;;;;22.17;11.57;;;;;;;-0.80;84.00;96550.41;5071683;28;20048;-61
2021/01/08 08:08:25;;;;;;;25.75;11.68;;;;;;;-0.76;84.40;96551.41;5055325;28;20176;-64
2021/01/08 08:10:51;;;;;;;24.50;12.10;;;;;;;-0.66;82.93;96556.59;5069086;28;20064;-61
2021/01/08 08:13:27;;;;;;;23.98;11.50;;;;;;;-0.73;83.28;96563.47;5062327;28;20844;-61
2021/01/08 08:15:52;;;;;;;21.48;10.50;;;;;;;-0.57;83.15;96566.69;5060235;28;20044;-61
2021/01/08 08:18:17;;;;;;;20.80;9.95;;;;;;;-0.59;82.74;96569.69;5053947;28;20350;-61
2021/01/08 08:20:46;;;;;;;20.77;10.27;;;;;;;-0.46;82.34;96565.41;5069603;28;20118;-62
2021/01/08 08:23:16;;;;;;;18.50;9.77;;;;;;;-0.49;81.85;96568.69;5061111;28;20051;-60
2021/01/08 08:25:42;;;;;;;20.77;11.18;;;;;;;-0.59;82.26;96575.84;5056978;28;20044;-61
2021/01/08 08:28:08;;;;;;;25.88;11.68;;;;;;;-0.52;82.88;96570.09;5057186;28;20045;-61
2021/01/08 08:30:34;;;;;;;23.13;11.23;;;;;;;-0.33;81.44;96579.94;5043363;28;20052;-62
2021/01/08 08:33:00;;;;;;;22.08;11.40;;;;;;;-0.50;81.83;96575.97;5060434;28;20043;-63
2021/01/08 08:35:26;;;;;;;26.25;11.27;;;;;;;-0.53;82.45;96587.31;5045103;28;20048;-62
2021/01/08 08:37:55;;;;;;;20.80;10.90;;;;;;;-0.45;82.63;96586.63;5088933;28;20055;-62
2021/01/08 08:40:29;;;;;;;19.77;10.27;;;;;;;-0.21;81.42;96594.50;5059019;28;20036;-61
2021/01/08 08:42:59;;;;;;;18.58;9.88;;;;;;;-0.16;80.98;96598.19;5046099;28;20546;-62
2021/01/08 08:45:28;;;;;;;21.10;10.25;;;;;;;-0.18;81.16;96595.00;5056352;28;20049;-62
2021/01/08 08:47:55;;;;;;;19.33;9.48;;;;;;;-0.25;81.41;96595.41;5062423;28;20103;-63
2021/01/08 08:50:22;;;;;;;29.30;13.98;;;;;;;-0.24;81.17;96597.00;5055273;28;20094;-61
2021/01/08 08:52:48;;;;;;;22.63;11.32;;;;;;;-0.28;81.61;96602.19;5041664;28;20036;-61
2021/01/08 08:55:32;;;;;;;21.88;9.75;;;;;;;0.01;80.79;96595.69;5058251;28;20241;-62
2021/01/08 08:58:02;;;;;;;21.23;11.10;;;;;;;-0.05;80.35;96595.00;5061416;28;20048;-62
2021/01/08 09:00:28;;;;;;;22.67;11.07;;;;;;;-0.10;79.74;96599.69;5061002;28;20047;-61
2021/01/08 09:02:54;;;;;;;20.48;9.90;;;;;;;0.02;80.73;96609.94;5060308;28;20044;-61
2021/01/08 09:05:19;;;;;;;18.35;9.35;;;;;;;0.02;80.56;96607.25;5058282;28;20071;-62
2021/01/08 09:07:56;;;;;;;21.85;10.55;;;;;;;0.07;80.24;96612.53;5062300;28;20043;-63
2021/01/08 09:10:27;;;;;;;23.05;11.05;;;;;;;-0.02;80.40;96613.25;5059393;28;22536;-63
2021/01/08 09:12:52;;;;;;;34.15;10.77;;;;;;;0.13;79.83;96603.28;5061462;28;20535;-61
2021/01/08 09:15:25;;;;;;;23.10;10.43;;;;;;;-0.08;80.53;96608.25;5058522;28;20052;-62
2021/01/08 09:18:19;;;;;;;29.48;12.48;;;;;;;-0.25;81.13;96608.88;5063789;28;20040;-63
2021/01/08 09:20:59;;;;;;;53.95;28.70;;;;;;;-0.14;80.50;96604.09;5041393;28;20091;-61
2021/01/08 09:23:28;;;;;;;32.97;18.10;;;;;;;-0.21;81.10;96607.97;5058254;28;20044;-61
2021/01/08 09:25:53;;;;;;;31.17;17.37;;;;;;;-0.23;80.21;96609.38;5066868;28;20131;-61
2021/01/08 09:28:19;;;;;;;45.45;20.75;;;;;;;-0.07;79.01;96605.28;5057712;28;20921;-62
2021/01/08 09:30:52;;;;;;;40.05;19.60;;;;;;;0.06;78.97;96608.25;5065042;28;20041;-62
2021/01/08 09:33:17;;;;;;;32.72;16.25;;;;;;;0.04;78.63;96615.81;5060342;28;20055;-62
2021/01/08 09:35:46;;;;;;;23.08;12.20;;;;;;;0.29;77.42;96604.53;5049110;28;20036;-61
2021/01/08 09:38:15;;;;;;;43.63;20.07;;;;;;;0.23;79.06;96605.72;5058980;28;20457;-61
2021/01/08 09:40:42;;;;;;;26.95;12.10;;;;;;;0.20;78.00;96603.66;5057071;28;20044;-61
2021/01/08 09:43:18;;;;;;;28.15;13.15;;;;;;;0.02;79.16;96612.63;5057434;28;20048;-62
2021/01/08 09:45:44;;;;;;;27.67;12.23;;;;;;;0.12;78.74;96615.13;5063678;28;20071;-61
2021/01/08 09:48:22;;;;;;;21.25;10.80;;;;;;;0.53;77.31;96606.97;5056940;28;20040;-61
2021/01/08 09:50:59;;;;;;;24.30;10.95;;;;;;;0.54;76.83;96605.88;5063347;28;20131;-62
2021/01/08 09:53:24;;;;;;;21.98;10.18;;;;;;;0.78;76.84;96606.72;5057706;28;20044;-61
2021/01/08 09:55:50;;;;;;;23.17;11.13;;;;;;;0.62;77.65;96598.97;5058126;28;20495;-62
2021/01/08 09:58:16;;;;;;;23.58;11.77;;;;;;;0.62;76.17;96598.97;5069917;28;20047;-61
2021/01/08 10:00:41;;;;;;;21.38;10.00;;;;;;;0.74;75.54;96595.75;5062878;28;20041;-61
2021/01/08 10:03:17;;;;;;;21.58;11.20;;;;;;;0.91;76.29;96598.53;5079299;23;20076;-63
2021/01/08 10:05:43;;;;;;;25.15;11.75;;;;;;;0.60;77.45;96608.47;5046900;28;20052;-62
2021/01/08 10:08:22;;;;;;;26.63;13.13;;;;;;;0.47;77.85;96600.09;5054835;28;20052;-61
2021/01/08 10:10:48;;;;;;;28.73;12.82;;;;;;;0.31;78.18;96601.53;5060237;28;20052;-62
2021/01/08 10:13:16;;;;;;;22.73;11.15;;;;;;;0.70;75.17;96609.03;5059074;28;20037;-63
2021/01/08 10:15:51;;;;;;;24.83;11.52;;;;;;;0.51;76.38;96609.16;5087465;28;20039;-61
2021/01/08 10:18:34;;;;;;;21.25;10.32;;;;;;;0.53;77.36;96608.88;5035897;28;20059;-61
2021/01/08 10:21:05;;;;;;;22.15;10.65;;;;;;;0.88;76.99;96606.44;5074973;28;20071;-60
2021/01/08 10:23:40;;;;;;;23.13;11.05;;;;;;;0.43;77.88;96596.41;5067992;28;20131;-62
2021/01/08 10:26:25;;;;;;;24.48;11.00;;;;;;;0.13;78.97;96606.75;5055083;28;20049;-64
2021/01/08 10:28:53;;;;;;;21.13;10.73;;;;;;;0.25;78.71;96598.13;5061098;28;20597;-61
2021/01/08 10:31:22;;;;;;;23.63;10.85;;;;;;;0.18;78.47;96603.97;5059809;28;20112;-64
2021/01/08 10:33:58;;;;;;;23.77;11.45;;;;;;;0.37;77.80;96600.31;5077359;28;20036;-63
2021/01/08 10:36:24;;;;;;;22.17;9.85;;;;;;;0.61;76.00;96597.34;5055406;28;20626;-62
2021/01/08 10:38:50;;;;;;;21.83;10.23;;;;;;;0.69;74.79;96606.63;5068203;28;20035;-61
2021/01/08 10:41:16;;;;;;;21.75;10.40;;;;;;;0.50;76.55;96602.19;5064489;28;20052;-61
2021/01/08 10:43:42;;;;;;;21.23;10.43;;;;;;;0.38;78.83;96597.34;5055760;28;20093;-60
2021/01/08 10:46:08;;;;;;;22.38;11.25;;;;;;;0.48;77.12;96592.81;5066889;28;20105;-62
2021/01/08 10:48:33;;;;;;;21.95;10.45;;;;;;;0.76;76.26;96605.09;5067522;28;20116;-64
2021/01/08 10:50:58;;;;;;;23.58;11.38;;;;;;;0.57;77.13;96586.38;5077763;28;20066;-62
2021/01/08 10:53:24;;;;;;;22.10;10.95;;;;;;;0.55;77.36;96585.09;5066940;28;20469;-63
2021/01/08 10:55:51;;;;;;;19.08;10.35;;;;;;;0.65;77.97;96594.84;5081211;28;20113;-63
2021/01/08 10:58:17;;;;;;;21.17;10.10;;;;;;;0.63;77.28;96592.47;5075383;28;20048;-64
2021/01/08 11:00:46;;;;;;;18.58;10.30;;;;;;;1.09;75.47;96585.97;5082567;28;20040;-62
2021/01/08 11:03:12;;;;;;;24.70;13.15;;;;;;;1.06;75.88;96592.00;5075063;28;20051;-63
2021/01/08 11:05:41;;;;;;;23.08;10.48;;;;;;;1.18;75.30;96587.94;5082180;28;20055;-63
2021/01/08 11:08:08;;;;;;;24.67;10.77;;;;;;;0.95;75.37;96587.94;5076973;28;20123;-61
2021/01/08 11:10:35;;;;;;;26.73;12.40;;;;;;;0.91;75.80;96587.75;5082006;28;20147;-63
2021/01/08 11:13:00;;;;;;;19.23;9.38;;;;;;;0.88;75.17;96582.19;5082239;28;20636;-61
2021/01/08 11:15:26;;;;;;;25.70;11.15;;;;;;;0.84;75.88;96584.69;5077450;28;20163;-62
2021/01/08 11:17:51;;;;;;;17.75;9.23;;;;;;;0.87;75.52;96580.59;5080533;28;20130;-62
2021/01/08 11:20:17;;;;;;;22.30;9.95;;;;;;;0.81;75.93;96579.94;5077077;28;20044;-63
2021/01/08 11:22:43;;;;;;;22.23;9.57;;;;;;;0.80;74.26;96581.03;5083178;28;20040;-62
2021/01/08 11:25:11;;;;;;;16.13;9.43;;;;;;;0.59;76.39;96579.91;5077547;28;20055;-63
2021/01/08 11:27:37;;;;;;;21.50;10.23;;;;;;;0.67;76.16;96581.88;5045637;28;20381;-62
2021/01/08 11:30:03;;;;;;;18.88;10.00;;;;;;;0.84;76.61;96573.91;5078984;28;20034;-61